sensor_id;sensor_type;location;lat;lon;timestamp;pressure;altitude;pressure_sealevel;temperature;humidity
59519;BME280;46994;54.976;73.404;2022-07-10T00:02:20;100025.81;;;21.02;59.83
59519;BME280;46994;54.976;73.404;2022-07-10T00:04:47;100054.44;;;21.22;59.54
59519;BME280;46994;54.976;73.404;2022-07-10T00:07:14;100051.88;;;21.32;59.36
59519;BME280;46994;54.976;73.404;2022-07-10T00:09:40;100011.59;;;21.17;59.57
59519;BME280;46994;54.976;73.404;2022-07-10T00:12:07;100024.56;;;21.27;59.01
59519;BME280;46994;54.976;73.404;2022-07-10T00:14:34;100021.44;;;21.40;58.68
59519;BME280;46994;54.976;73.404;2022-07-10T00:17:00;100051.69;;;21.60;58.40
59519;BME280;46994;54.976;73.404;2022-07-10T00:19:27;100039.66;;;21.56;58.32
59519;BME280;46994;54.976;73.404;2022-07-10T00:21:54;100068.75;;;21.72;58.33
59519;BME280;46994;54.976;73.404;2022-07-10T00:24:21;100041.59;;;21.61;57.99
59519;BME280;46994;54.976;73.404;2022-07-10T00:26:47;100047.97;;;21.66;58.21
59519;BME280;46994;54.976;73.404;2022-07-10T00:29:14;100045.53;;;21.70;57.67
59519;BME280;46994;54.976;73.404;2022-07-10T00:31:41;100055.75;;;21.80;58.29
59519;BME280;46994;54.976;73.404;2022-07-10T00:34:08;100015.69;;;21.58;58.11
59519;BME280;46994;54.976;73.404;2022-07-10T00:36:35;100075.59;;;21.97;57.90
59519;BME280;46994;54.976;73.404;2022-07-10T00:39:02;100067.41;;;21.97;58.03
59519;BME280;46994;54.976;73.404;2022-07-10T00:41:28;100062.69;;;21.92;58.13
59519;BME280;46994;54.976;73.404;2022-07-10T00:43:58;100052.56;;;21.88;57.90
59519;BME280;46994;54.976;73.404;2022-07-10T00:46:26;100059.78;;;21.99;57.78
59519;BME280;46994;54.976;73.404;2022-07-10T00:48:54;100050.22;;;21.96;57.79
59519;BME280;46994;54.976;73.404;2022-07-10T00:51:22;100062.91;;;22.08;57.43
59519;BME280;46994;54.976;73.404;2022-07-10T00:53:50;100045.31;;;21.98;57.57
59519;BME280;46994;54.976;73.404;2022-07-10T00:56:19;100065.47;;;22.19;57.69
59519;BME280;46994;54.976;73.404;2022-07-10T00:58:50;100063.63;;;22.25;57.76
59519;BME280;46994;54.976;73.404;2022-07-10T01:01:17;100075.28;;;22.42;57.13
59519;BME280;46994;54.976;73.404;2022-07-10T01:03:45;100074.19;;;22.43;57.09
59519;BME280;46994;54.976;73.404;2022-07-10T01:06:13;100060.78;;;22.42;56.94
59519;BME280;46994;54.976;73.404;2022-07-10T01:08:41;100047.56;;;22.28;57.40
59519;BME280;46994;54.976;73.404;2022-07-10T01:11:09;100059.41;;;22.39;57.50
59519;BME280;46994;54.976;73.404;2022-07-10T01:13:39;100045.38;;;22.30;57.28
59519;BME280;46994;54.976;73.404;2022-07-10T01:16:06;100047.63;;;22.33;57.35
59519;BME280;46994;54.976;73.404;2022-07-10T01:18:32;100061.38;;;22.44;57.44
59519;BME280;46994;54.976;73.404;2022-07-10T01:20:59;100060.00;;;22.46;57.64
59519;BME280;46994;54.976;73.404;2022-07-10T01:23:26;100036.69;;;22.33;57.48
59519;BME280;46994;54.976;73.404;2022-07-10T01:25:53;100062.75;;;22.46;57.42
59519;BME280;46994;54.976;73.404;2022-07-10T01:28:21;100057.84;;;22.48;57.83
59519;BME280;46994;54.976;73.404;2022-07-10T01:30:48;100042.81;;;22.46;57.65
59519;BME280;46994;54.976;73.404;2022-07-10T01:33:15;100049.63;;;22.43;57.89
59519;BME280;46994;54.976;73.404;2022-07-10T01:35:42;100052.38;;;22.48;57.54
59519;BME280;46994;54.976;73.404;2022-07-10T01:38:09;100068.38;;;22.67;57.57
59519;BME280;46994;54.976;73.404;2022-07-10T01:40:35;100079.38;;;22.72;57.64
59519;BME280;46994;54.976;73.404;2022-07-10T01:43:02;100051.38;;;22.59;57.68
59519;BME280;46994;54.976;73.404;2022-07-10T01:45:29;100072.50;;;22.69;57.77
59519;BME280;46994;54.976;73.404;2022-07-10T01:47:55;100049.78;;;22.64;58.19
59519;BME280;46994;54.976;73.404;2022-07-10T01:50:23;100062.66;;;22.68;57.92
59519;BME280;46994;54.976;73.404;2022-07-10T01:52:50;100061.63;;;22.74;58.14
59519;BME280;46994;54.976;73.404;2022-07-10T01:55:17;100049.53;;;22.70;57.76
59519;BME280;46994;54.976;73.404;2022-07-10T01:57:44;100064.75;;;22.88;57.88
59519;BME280;46994;54.976;73.404;2022-07-10T02:00:11;100051.03;;;22.83;57.56
59519;BME280;46994;54.976;73.404;2022-07-10T02:02:40;100077.44;;;23.04;57.34
59519;BME280;46994;54.976;73.404;2022-07-10T02:05:07;100076.38;;;23.10;58.10
59519;BME280;46994;54.976;73.404;2022-07-10T02:07:35;100084.91;;;23.19;57.03
59519;BME280;46994;54.976;73.404;2022-07-10T02:10:01;100080.84;;;23.27;56.92
59519;BME280;46994;54.976;73.404;2022-07-10T02:12:28;100053.25;;;23.28;56.79
59519;BME280;46994;54.976;73.404;2022-07-10T02:14:55;100054.94;;;23.39;56.73
59519;BME280;46994;54.976;73.404;2022-07-10T02:17:25;100063.47;;;23.48;56.14
59519;BME280;46994;54.976;73.404;2022-07-10T02:22:37;100069.25;;;23.57;56.12
59519;BME280;46994;54.976;73.404;2022-07-10T02:25:04;100075.34;;;23.69;55.90
59519;BME280;46994;54.976;73.404;2022-07-10T02:27:31;100064.44;;;23.74;55.55
59519;BME280;46994;54.976;73.404;2022-07-10T02:29:58;100082.84;;;23.99;55.96
59519;BME280;46994;54.976;73.404;2022-07-10T02:32:25;100082.06;;;24.03;55.62
59519;BME280;46994;54.976;73.404;2022-07-10T02:34:51;100077.66;;;24.08;55.37
59519;BME280;46994;54.976;73.404;2022-07-10T02:37:18;100085.38;;;24.21;55.29
59519;BME280;46994;54.976;73.404;2022-07-10T02:39:45;100078.88;;;24.32;55.32
59519;BME280;46994;54.976;73.404;2022-07-10T02:42:12;100070.88;;;24.30;54.81
59519;BME280;46994;54.976;73.404;2022-07-10T02:44:38;100061.59;;;24.37;54.64
59519;BME280;46994;54.976;73.404;2022-07-10T02:47:05;100081.09;;;24.50;54.27
59519;BME280;46994;54.976;73.404;2022-07-10T02:49:32;100060.81;;;24.51;54.29
59519;BME280;46994;54.976;73.404;2022-07-10T02:51:59;100093.69;;;24.77;54.27
59519;BME280;46994;54.976;73.404;2022-07-10T02:54:26;100084.94;;;24.80;53.81
59519;BME280;46994;54.976;73.404;2022-07-10T02:56:53;100090.09;;;24.86;53.98
59519;BME280;46994;54.976;73.404;2022-07-10T02:59:20;100109.03;;;24.93;53.68
59519;BME280;46994;54.976;73.404;2022-07-10T03:01:46;100092.88;;;24.81;54.26
59519;BME280;46994;54.976;73.404;2022-07-10T03:04:13;100077.25;;;24.82;53.95
59519;BME280;46994;54.976;73.404;2022-07-10T03:06:40;100085.47;;;24.92;53.78
59519;BME280;46994;54.976;73.404;2022-07-10T03:09:06;100089.56;;;24.95;54.08
59519;BME280;46994;54.976;73.404;2022-07-10T03:11:33;100089.28;;;25.01;53.35
59519;BME280;46994;54.976;73.404;2022-07-10T03:14:00;100099.16;;;25.28;53.47
59519;BME280;46994;54.976;73.404;2022-07-10T03:16:27;100090.66;;;25.29;53.87
59519;BME280;46994;54.976;73.404;2022-07-10T03:18:53;100109.50;;;25.46;52.76
59519;BME280;46994;54.976;73.404;2022-07-10T03:21:20;100093.06;;;25.46;51.85
59519;BME280;46994;54.976;73.404;2022-07-10T03:23:47;100074.13;;;25.44;52.32
59519;BME280;46994;54.976;73.404;2022-07-10T03:26:14;100095.75;;;25.71;51.72
59519;BME280;46994;54.976;73.404;2022-07-10T03:28:40;100074.88;;;25.65;50.73
59519;BME280;46994;54.976;73.404;2022-07-10T03:31:07;100097.06;;;25.84;51.29
59519;BME280;46994;54.976;73.404;2022-07-10T03:33:34;100078.72;;;25.74;50.25
59519;BME280;46994;54.976;73.404;2022-07-10T03:36:00;100078.69;;;25.80;49.90
59519;BME280;46994;54.976;73.404;2022-07-10T03:38:30;100095.06;;;26.00;50.10
59519;BME280;46994;54.976;73.404;2022-07-10T03:40:57;100089.53;;;26.05;49.97
59519;BME280;46994;54.976;73.404;2022-07-10T03:43:24;100078.91;;;25.93;50.35
59519;BME280;46994;54.976;73.404;2022-07-10T03:45:51;100076.13;;;25.98;50.13
59519;BME280;46994;54.976;73.404;2022-07-10T03:48:18;100092.78;;;26.17;50.61
59519;BME280;46994;54.976;73.404;2022-07-10T03:50:44;100078.47;;;26.20;49.34
59519;BME280;46994;54.976;73.404;2022-07-10T03:53:11;100104.22;;;26.40;49.31
59519;BME280;46994;54.976;73.404;2022-07-10T03:55:38;100090.19;;;26.36;48.97
59519;BME280;46994;54.976;73.404;2022-07-10T03:58:05;100106.91;;;26.45;48.80
59519;BME280;46994;54.976;73.404;2022-07-10T04:00:32;100088.00;;;26.38;47.74
59519;BME280;46994;54.976;73.404;2022-07-10T04:03:03;100105.13;;;26.64;47.77
59519;BME280;46994;54.976;73.404;2022-07-10T04:05:31;100101.22;;;26.75;47.17
59519;BME280;46994;54.976;73.404;2022-07-10T04:07:59;100091.25;;;26.79;47.41
59519;BME280;46994;54.976;73.404;2022-07-10T04:10:28;100097.19;;;26.92;47.15
59519;BME280;46994;54.976;73.404;2022-07-10T04:12:55;100097.72;;;26.94;47.12
59519;BME280;46994;54.976;73.404;2022-07-10T04:15:22;100078.53;;;26.88;46.99
59519;BME280;46994;54.976;73.404;2022-07-10T04:17:49;100102.91;;;27.00;46.95
59519;BME280;46994;54.976;73.404;2022-07-10T04:20:17;100109.22;;;27.01;46.76
59519;BME280;46994;54.976;73.404;2022-07-10T04:22:44;100099.84;;;27.02;46.54
59519;BME280;46994;54.976;73.404;2022-07-10T04:25:12;100093.28;;;27.03;45.86
59519;BME280;46994;54.976;73.404;2022-07-10T04:27:39;100108.00;;;27.17;45.37
59519;BME280;46994;54.976;73.404;2022-07-10T04:30:07;100097.94;;;27.07;44.70
59519;BME280;46994;54.976;73.404;2022-07-10T04:32:33;100091.00;;;27.10;44.42
59519;BME280;46994;54.976;73.404;2022-07-10T04:35:00;100097.88;;;27.12;44.88
59519;BME280;46994;54.976;73.404;2022-07-10T04:37:30;100097.59;;;27.14;43.92
59519;BME280;46994;54.976;73.404;2022-07-10T04:39:56;100102.22;;;27.19;43.72
59519;BME280;46994;54.976;73.404;2022-07-10T04:42:24;100122.19;;;27.29;43.81
59519;BME280;46994;54.976;73.404;2022-07-10T04:44:50;100099.69;;;27.22;44.20
59519;BME280;46994;54.976;73.404;2022-07-10T04:47:17;100104.22;;;27.37;44.13
59519;BME280;46994;54.976;73.404;2022-07-10T04:49:44;100078.69;;;27.31;43.39
59519;BME280;46994;54.976;73.404;2022-07-10T04:52:11;100111.78;;;27.50;43.21
59519;BME280;46994;54.976;73.404;2022-07-10T04:54:37;100111.91;;;27.64;40.90
59519;BME280;46994;54.976;73.404;2022-07-10T04:57:04;100092.09;;;27.62;40.13
59519;BME280;46994;54.976;73.404;2022-07-10T04:59:31;100094.50;;;27.74;39.91
59519;BME280;46994;54.976;73.404;2022-07-10T05:01:58;100105.28;;;27.89;40.90
59519;BME280;46994;54.976;73.404;2022-07-10T05:04:24;100111.63;;;27.89;40.26
59519;BME280;46994;54.976;73.404;2022-07-10T05:06:51;100089.66;;;27.84;41.01
59519;BME280;46994;54.976;73.404;2022-07-10T05:09:18;100110.66;;;27.99;39.61
59519;BME280;46994;54.976;73.404;2022-07-10T05:11:48;100097.31;;;27.87;39.17
59519;BME280;46994;54.976;73.404;2022-07-10T05:14:14;100092.59;;;27.93;40.07
59519;BME280;46994;54.976;73.404;2022-07-10T05:16:42;100083.34;;;27.84;39.20
59519;BME280;46994;54.976;73.404;2022-07-10T05:19:09;100095.56;;;27.96;39.09
59519;BME280;46994;54.976;73.404;2022-07-10T05:21:36;100090.22;;;28.05;39.78
59519;BME280;46994;54.976;73.404;2022-07-10T05:24:02;100107.41;;;28.16;40.52
59519;BME280;46994;54.976;73.404;2022-07-10T05:26:29;100100.94;;;28.25;40.54
59519;BME280;46994;54.976;73.404;2022-07-10T05:28:56;100050.41;;;27.92;39.43
59519;BME280;46994;54.976;73.404;2022-07-10T05:31:23;100112.31;;;28.19;40.45
59519;BME280;46994;54.976;73.404;2022-07-10T05:33:50;100088.84;;;28.21;38.18
59519;BME280;46994;54.976;73.404;2022-07-10T05:36:16;100080.00;;;28.24;38.91
59519;BME280;46994;54.976;73.404;2022-07-10T05:38:43;100087.91;;;28.31;38.38
59519;BME280;46994;54.976;73.404;2022-07-10T05:41:10;100092.34;;;28.32;38.17
59519;BME280;46994;54.976;73.404;2022-07-10T05:43:37;100103.22;;;28.42;39.11
59519;BME280;46994;54.976;73.404;2022-07-10T05:46:03;100084.88;;;28.33;40.15
59519;BME280;46994;54.976;73.404;2022-07-10T05:48:32;100090.00;;;28.39;39.59
59519;BME280;46994;54.976;73.404;2022-07-10T05:50:58;100081.16;;;28.42;38.23
59519;BME280;46994;54.976;73.404;2022-07-10T05:53:25;100089.19;;;28.57;38.97
59519;BME280;46994;54.976;73.404;2022-07-10T05:55:52;100103.41;;;28.65;37.75
59519;BME280;46994;54.976;73.404;2022-07-10T05:58:19;100099.28;;;28.81;38.11
59519;BME280;46994;54.976;73.404;2022-07-10T06:00:45;100083.28;;;28.64;37.37
59519;BME280;46994;54.976;73.404;2022-07-10T06:03:12;100079.09;;;28.67;37.50
59519;BME280;46994;54.976;73.404;2022-07-10T06:05:39;100087.13;;;28.82;37.80
59519;BME280;46994;54.976;73.404;2022-07-10T06:08:06;100095.78;;;28.75;37.79
59519;BME280;46994;54.976;73.404;2022-07-10T06:10:32;100082.16;;;28.65;38.02
59519;BME280;46994;54.976;73.404;2022-07-10T06:12:59;100090.78;;;28.77;37.33
59519;BME280;46994;54.976;73.404;2022-07-10T06:15:26;100078.09;;;28.76;38.15
59519;BME280;46994;54.976;73.404;2022-07-10T06:17:56;100078.94;;;28.77;36.96
59519;BME280;46994;54.976;73.404;2022-07-10T06:20:25;100089.63;;;28.97;36.79
59519;BME280;46994;54.976;73.404;2022-07-10T06:22:52;100074.31;;;28.91;36.76
59519;BME280;46994;54.976;73.404;2022-07-10T06:25:19;100086.19;;;29.05;36.46
59519;BME280;46994;54.976;73.404;2022-07-10T06:27:46;100075.59;;;29.12;36.40
59519;BME280;46994;54.976;73.404;2022-07-10T06:30:13;100090.72;;;29.29;36.10
59519;BME280;46994;54.976;73.404;2022-07-10T06:32:39;100086.00;;;29.29;35.79
59519;BME280;46994;54.976;73.404;2022-07-10T06:35:07;100092.53;;;29.20;35.17
59519;BME280;46994;54.976;73.404;2022-07-10T06:37:34;100066.75;;;28.97;35.41
59519;BME280;46994;54.976;73.404;2022-07-10T06:40:01;100089.38;;;29.12;35.85
59519;BME280;46994;54.976;73.404;2022-07-10T06:42:27;100076.28;;;29.04;34.97
59519;BME280;46994;54.976;73.404;2022-07-10T06:44:59;100082.31;;;29.20;35.11
59519;BME280;46994;54.976;73.404;2022-07-10T06:47:25;100053.69;;;29.16;35.01
59519;BME280;46994;54.976;73.404;2022-07-10T06:50:11;100071.25;;;29.06;35.61
59519;BME280;46994;54.976;73.404;2022-07-10T06:52:37;100061.88;;;29.07;35.33
59519;BME280;46994;54.976;73.404;2022-07-10T06:55:04;100053.69;;;29.02;35.54
59519;BME280;46994;54.976;73.404;2022-07-10T06:57:32;100056.31;;;28.94;35.55
59519;BME280;46994;54.976;73.404;2022-07-10T06:59:59;100079.47;;;29.25;34.90
59519;BME280;46994;54.976;73.404;2022-07-10T07:02:25;100060.66;;;29.27;34.98
59519;BME280;46994;54.976;73.404;2022-07-10T07:04:52;100080.72;;;29.47;34.54
59519;BME280;46994;54.976;73.404;2022-07-10T07:07:19;100054.44;;;29.49;35.45
59519;BME280;46994;54.976;73.404;2022-07-10T07:09:46;100068.03;;;29.59;34.25
59519;BME280;46994;54.976;73.404;2022-07-10T07:12:16;100014.34;;;29.38;34.17
59519;BME280;46994;54.976;73.404;2022-07-10T07:14:44;100052.28;;;29.74;33.62
59519;BME280;46994;54.976;73.404;2022-07-10T07:17:11;100080.72;;;30.02;32.21
59519;BME280;46994;54.976;73.404;2022-07-10T07:19:40;100054.78;;;29.97;32.50
59519;BME280;46994;54.976;73.404;2022-07-10T07:22:26;100061.47;;;30.10;32.77
59519;BME280;46994;54.976;73.404;2022-07-10T07:25:11;100065.31;;;30.23;32.71
59519;BME280;46994;54.976;73.404;2022-07-10T07:27:38;100070.19;;;30.40;32.93
59519;BME280;46994;54.976;73.404;2022-07-10T07:30:13;100068.47;;;30.52;33.06
59519;BME280;46994;54.976;73.404;2022-07-10T07:32:44;100050.91;;;30.48;32.22
59519;BME280;46994;54.976;73.404;2022-07-10T07:35:13;100063.59;;;30.49;33.53
59519;BME280;46994;54.976;73.404;2022-07-10T07:40:10;100046.84;;;30.32;32.82
59519;BME280;46994;54.976;73.404;2022-07-10T07:42:37;100048.41;;;30.47;33.41
59519;BME280;46994;54.976;73.404;2022-07-10T07:45:05;100073.06;;;30.57;32.77
59519;BME280;46994;54.976;73.404;2022-07-10T07:47:42;100052.69;;;30.53;32.26
59519;BME280;46994;54.976;73.404;2022-07-10T07:50:14;100062.63;;;30.54;31.95
59519;BME280;46994;54.976;73.404;2022-07-10T07:52:41;100054.66;;;30.52;32.25
59519;BME280;46994;54.976;73.404;2022-07-10T07:55:09;100067.63;;;30.66;32.29
59519;BME280;46994;54.976;73.404;2022-07-10T07:57:37;100066.91;;;30.60;32.35
59519;BME280;46994;54.976;73.404;2022-07-10T08:00:05;100037.75;;;30.54;32.79
59519;BME280;46994;54.976;73.404;2022-07-10T08:02:38;100057.44;;;30.75;32.14
59519;BME280;46994;54.976;73.404;2022-07-10T08:05:06;100038.63;;;30.63;30.88
59519;BME280;46994;54.976;73.404;2022-07-10T08:07:41;100056.91;;;30.50;31.69
59519;BME280;46994;54.976;73.404;2022-07-10T08:10:10;100070.44;;;30.16;31.83
59519;BME280;46994;54.976;73.404;2022-07-10T08:12:37;100047.44;;;29.93;32.05
59519;BME280;46994;54.976;73.404;2022-07-10T08:15:07;100004.97;;;29.53;32.04
59519;BME280;46994;54.976;73.404;2022-07-10T08:17:34;100021.38;;;29.85;32.15
59519;BME280;46994;54.976;73.404;2022-07-10T08:20:02;100055.63;;;30.12;32.41
59519;BME280;46994;54.976;73.404;2022-07-10T08:22:29;100064.75;;;30.12;32.84
59519;BME280;46994;54.976;73.404;2022-07-10T08:24:56;100048.31;;;29.80;32.15
59519;BME280;46994;54.976;73.404;2022-07-10T08:27:23;100055.16;;;29.82;33.27
59519;BME280;46994;54.976;73.404;2022-07-10T08:29:50;100058.63;;;29.74;31.91
59519;BME280;46994;54.976;73.404;2022-07-10T08:32:17;100065.41;;;29.54;32.26
59519;BME280;46994;54.976;73.404;2022-07-10T08:34:44;100061.31;;;29.52;32.47
59519;BME280;46994;54.976;73.404;2022-07-10T08:37:11;100053.44;;;29.73;32.09
59519;BME280;46994;54.976;73.404;2022-07-10T08:39:37;100024.53;;;29.79;32.37
59519;BME280;46994;54.976;73.404;2022-07-10T08:42:05;100038.84;;;29.94;32.06
59519;BME280;46994;54.976;73.404;2022-07-10T08:44:36;100046.06;;;30.18;32.30
59519;BME280;46994;54.976;73.404;2022-07-10T08:47:04;100039.31;;;30.24;32.00
59519;BME280;46994;54.976;73.404;2022-07-10T08:49:31;100020.84;;;30.33;31.98
59519;BME280;46994;54.976;73.404;2022-07-10T08:52:05;100053.25;;;30.64;32.34
59519;BME280;46994;54.976;73.404;2022-07-10T08:54:33;100047.31;;;30.70;31.68
59519;BME280;46994;54.976;73.404;2022-07-10T08:57:02;100030.56;;;30.53;31.59
59519;BME280;46994;54.976;73.404;2022-07-10T08:59:29;100022.16;;;30.58;32.06
59519;BME280;46994;54.976;73.404;2022-07-10T09:01:57;100039.19;;;30.51;31.81
59519;BME280;46994;54.976;73.404;2022-07-10T09:04:26;100036.84;;;30.45;31.28
59519;BME280;46994;54.976;73.404;2022-07-10T09:06:54;100053.28;;;30.41;31.30
59519;BME280;46994;54.976;73.404;2022-07-10T09:09:21;100034.03;;;30.00;32.20
59519;BME280;46994;54.976;73.404;2022-07-10T09:11:48;100041.50;;;29.99;32.68
59519;BME280;46994;54.976;73.404;2022-07-10T09:14:16;100030.97;;;30.02;31.64
59519;BME280;46994;54.976;73.404;2022-07-10T09:16:44;100032.97;;;30.23;31.86
59519;BME280;46994;54.976;73.404;2022-07-10T09:19:15;100038.97;;;30.48;31.99
59519;BME280;46994;54.976;73.404;2022-07-10T09:21:43;100038.38;;;30.51;32.15
59519;BME280;46994;54.976;73.404;2022-07-10T09:24:10;100017.56;;;30.53;30.88
59519;BME280;46994;54.976;73.404;2022-07-10T09:26:39;100039.69;;;30.76;30.28
59519;BME280;46994;54.976;73.404;2022-07-10T09:29:15;100042.47;;;30.76;28.42
59519;BME280;46994;54.976;73.404;2022-07-10T09:31:55;100033.34;;;30.75;27.92
59519;BME280;46994;54.976;73.404;2022-07-10T09:34:46;100024.59;;;30.82;29.27
59519;BME280;46994;54.976;73.404;2022-07-10T09:37:24;100005.72;;;30.84;30.19
59519;BME280;46994;54.976;73.404;2022-07-10T09:39:59;100021.59;;;31.01;29.67
59519;BME280;46994;54.976;73.404;2022-07-10T09:42:42;100026.31;;;31.00;29.45
59519;BME280;46994;54.976;73.404;2022-07-10T09:45:17;100022.22;;;30.89;30.33
59519;BME280;46994;54.976;73.404;2022-07-10T09:47:58;100018.31;;;30.90;30.65
59519;BME280;46994;54.976;73.404;2022-07-10T09:50:36;99994.94;;;30.74;31.87
59519;BME280;46994;54.976;73.404;2022-07-10T09:53:04;100006.03;;;30.82;31.21
59519;BME280;46994;54.976;73.404;2022-07-10T09:55:34;99994.28;;;30.77;31.22
59519;BME280;46994;54.976;73.404;2022-07-10T09:58:06;100020.00;;;30.77;31.15
59519;BME280;46994;54.976;73.404;2022-07-10T10:00:35;100030.72;;;30.70;31.41
59519;BME280;46994;54.976;73.404;2022-07-10T10:03:03;100028.38;;;30.64;31.53
59519;BME280;46994;54.976;73.404;2022-07-10T10:05:43;100013.72;;;30.63;31.12
59519;BME280;46994;54.976;73.404;2022-07-10T10:08:25;100025.00;;;30.67;31.43
59519;BME280;46994;54.976;73.404;2022-07-10T10:10:53;100017.63;;;30.62;31.08
59519;BME280;46994;54.976;73.404;2022-07-10T10:13:24;100017.50;;;30.67;31.26
59519;BME280;46994;54.976;73.404;2022-07-10T10:15:52;100005.13;;;30.65;31.63
59519;BME280;46994;54.976;73.404;2022-07-10T10:18:23;99994.13;;;30.51;30.97
59519;BME280;46994;54.976;73.404;2022-07-10T10:20:52;100010.94;;;30.63;31.79
59519;BME280;46994;54.976;73.404;2022-07-10T10:23:22;99991.69;;;30.49;31.06
59519;BME280;46994;54.976;73.404;2022-07-10T10:25:53;100002.78;;;30.58;31.24
59519;BME280;46994;54.976;73.404;2022-07-10T10:28:22;100004.97;;;30.47;31.47
59519;BME280;46994;54.976;73.404;2022-07-10T10:30:57;99984.19;;;30.27;30.55
59519;BME280;46994;54.976;73.404;2022-07-10T10:35:57;100009.94;;;30.37;30.92
59519;BME280;46994;54.976;73.404;2022-07-10T10:38:25;99995.88;;;30.24;32.10
59519;BME280;46994;54.976;73.404;2022-07-10T10:41:23;99994.06;;;30.20;32.87
59519;BME280;46994;54.976;73.404;2022-07-10T10:49:54;99999.72;;;30.15;33.29
59519;BME280;46994;54.976;73.404;2022-07-10T10:52:23;100010.03;;;30.23;32.95
59519;BME280;46994;54.976;73.404;2022-07-10T11:00:03;100015.97;;;30.16;32.43
59519;BME280;46994;54.976;73.404;2022-07-10T11:02:35;100004.41;;;30.14;32.22
59519;BME280;46994;54.976;73.404;2022-07-10T11:08:00;100000.53;;;30.15;33.79
59519;BME280;46994;54.976;73.404;2022-07-10T11:13:04;100001.56;;;30.06;34.29
59519;BME280;46994;54.976;73.404;2022-07-10T11:15:35;100011.50;;;30.07;34.19
59519;BME280;46994;54.976;73.404;2022-07-10T11:18:07;100010.66;;;30.06;34.15
59519;BME280;46994;54.976;73.404;2022-07-10T11:20:36;100010.66;;;30.06;34.27
59519;BME280;46994;54.976;73.404;2022-07-10T11:25:51;100008.22;;;30.05;32.77
59519;BME280;46994;54.976;73.404;2022-07-10T11:28:53;100010.28;;;29.99;32.17
59519;BME280;46994;54.976;73.404;2022-07-10T11:31:21;99984.94;;;29.83;32.47
59519;BME280;46994;54.976;73.404;2022-07-10T11:33:49;100004.44;;;30.01;32.54
59519;BME280;46994;54.976;73.404;2022-07-10T11:36:24;99989.53;;;29.88;33.56
59519;BME280;46994;54.976;73.404;2022-07-10T11:39:05;99977.97;;;29.86;34.12
59519;BME280;46994;54.976;73.404;2022-07-10T11:41:33;99982.75;;;29.94;34.27
59519;BME280;46994;54.976;73.404;2022-07-10T11:44:02;99984.72;;;29.93;34.96
59519;BME280;46994;54.976;73.404;2022-07-10T11:46:33;99985.53;;;29.94;34.70
59519;BME280;46994;54.976;73.404;2022-07-10T11:49:05;99980.31;;;29.92;35.10
59519;BME280;46994;54.976;73.404;2022-07-10T11:51:35;99996.34;;;30.04;34.17
59519;BME280;46994;54.976;73.404;2022-07-10T11:54:09;100005.56;;;30.13;33.92
59519;BME280;46994;54.976;73.404;2022-07-10T11:56:39;99985.28;;;30.04;33.33
59519;BME280;46994;54.976;73.404;2022-07-10T11:59:09;100001.34;;;30.16;33.60
59519;BME280;46994;54.976;73.404;2022-07-10T12:01:44;100007.13;;;30.28;32.97
59519;BME280;46994;54.976;73.404;2022-07-10T12:04:13;100001.78;;;30.32;33.15
59519;BME280;46994;54.976;73.404;2022-07-10T12:06:45;100013.91;;;30.44;32.90
59519;BME280;46994;54.976;73.404;2022-07-10T12:09:14;99978.66;;;30.27;32.87
59519;BME280;46994;54.976;73.404;2022-07-10T12:11:43;99990.59;;;30.37;32.22
59519;BME280;46994;54.976;73.404;2022-07-10T12:16:38;100001.03;;;30.62;32.06
59519;BME280;46994;54.976;73.404;2022-07-10T12:19:06;99986.69;;;30.60;32.46
59519;BME280;46994;54.976;73.404;2022-07-10T12:21:33;99994.94;;;30.74;32.15
59519;BME280;46994;54.976;73.404;2022-07-10T12:24:00;99996.44;;;30.80;32.57
59519;BME280;46994;54.976;73.404;2022-07-10T12:26:35;99999.41;;;30.92;31.84
59519;BME280;46994;54.976;73.404;2022-07-10T12:29:02;99988.47;;;30.78;32.37
59519;BME280;46994;54.976;73.404;2022-07-10T12:31:33;99999.22;;;30.80;32.32
59519;BME280;46994;54.976;73.404;2022-07-10T12:34:05;99982.34;;;30.68;32.07
59519;BME280;46994;54.976;73.404;2022-07-10T12:36:42;99980.59;;;30.72;31.95
59519;BME280;46994;54.976;73.404;2022-07-10T12:39:10;99978.19;;;30.79;31.38
59519;BME280;46994;54.976;73.404;2022-07-10T12:42:06;100006.22;;;31.17;31.58
59519;BME280;46994;54.976;73.404;2022-07-10T12:44:44;99970.91;;;31.23;32.54
59519;BME280;46994;54.976;73.404;2022-07-10T12:47:16;99978.63;;;31.43;31.97
59519;BME280;46994;54.976;73.404;2022-07-10T12:52:33;100008.22;;;31.82;31.40
59519;BME280;46994;54.976;73.404;2022-07-10T12:55:14;99977.91;;;31.77;31.19
59519;BME280;46994;54.976;73.404;2022-07-10T13:00:34;100003.31;;;32.05;30.60
59519;BME280;46994;54.976;73.404;2022-07-10T13:08:18;99999.75;;;32.13;30.79
59519;BME280;46994;54.976;73.404;2022-07-10T13:10:56;100003.97;;;31.93;30.36
59519;BME280;46994;54.976;73.404;2022-07-10T13:13:23;100026.16;;;32.02;30.29
59519;BME280;46994;54.976;73.404;2022-07-10T13:15:50;100002.50;;;32.22;30.01
59519;BME280;46994;54.976;73.404;2022-07-10T13:18:20;100011.00;;;32.51;29.53
59519;BME280;46994;54.976;73.404;2022-07-10T13:20:48;100005.09;;;32.70;29.76
59519;BME280;46994;54.976;73.404;2022-07-10T13:23:16;100025.16;;;32.76;30.44
59519;BME280;46994;54.976;73.404;2022-07-10T13:25:45;100018.13;;;32.96;30.25
59519;BME280;46994;54.976;73.404;2022-07-10T13:28:12;100023.84;;;33.37;29.85
59519;BME280;46994;54.976;73.404;2022-07-10T13:30:39;100036.06;;;33.75;29.05